createdAt,value
2018-01-25T00:01:16.551Z,62.10
2018-01-25T00:03:44.394Z,62.50
2018-01-25T00:06:11.902Z,62.50
2018-01-25T00:08:39.442Z,62.30
2018-01-25T00:11:06.951Z,62.40
2018-01-25T00:13:34.491Z,62.10
2018-01-25T00:16:02.034Z,61.90
2018-01-25T00:18:29.630Z,62.80
2018-01-25T00:20:57.201Z,62.20
2018-01-25T00:23:24.708Z,63.10
2018-01-25T00:25:52.271Z,62.30
2018-01-25T00:28:19.788Z,62.40
2018-01-25T00:30:47.338Z,62.60
2018-01-25T00:33:14.849Z,62.30
2018-01-25T00:35:42.367Z,62.30
2018-01-25T00:38:10.683Z,61.70
2018-01-25T00:40:38.200Z,61.60
2018-01-25T00:43:06.514Z,61.90
2018-01-25T00:45:34.070Z,61.90
2018-01-25T00:48:01.607Z,61.40
2018-01-25T00:50:29.174Z,61.80
2018-01-25T00:52:56.679Z,61.30
2018-01-25T00:55:24.213Z,61.50
2018-01-25T00:57:51.746Z,61.30
2018-01-25T01:00:19.281Z,61.80
2018-01-25T01:02:46.845Z,61.90
2018-01-25T01:05:14.367Z,61.90
2018-01-25T01:07:41.928Z,61.80
2018-01-25T01:10:09.443Z,61.50
2018-01-25T01:12:36.986Z,61.50
2018-01-25T01:15:05.311Z,61.10
2018-01-25T01:17:32.840Z,61.00
2018-01-25T01:20:01.157Z,62.00
2018-01-25T01:22:28.671Z,61.90
2018-01-25T01:24:56.980Z,62.30
2018-01-25T01:27:24.496Z,62.30
2018-01-25T01:29:52.881Z,61.40
2018-01-25T01:32:20.370Z,61.00
2018-01-25T01:34:47.936Z,60.70
2018-01-25T01:37:15.460Z,61.40
2018-01-25T01:39:43.016Z,61.10
2018-01-25T01:42:11.356Z,61.00
2018-01-25T01:44:38.906Z,60.90
2018-01-25T01:47:06.448Z,61.10
2018-01-25T01:49:34.007Z,61.60
2018-01-25T01:52:01.565Z,61.60
2018-01-25T01:54:29.097Z,61.80
2018-01-25T01:56:56.637Z,61.80
2018-01-25T01:59:24.168Z,62.00
2018-01-25T02:01:51.687Z,62.10
2018-01-25T02:04:19.235Z,61.20
2018-01-25T02:06:46.748Z,61.50
2018-01-25T02:09:14.295Z,61.70
2018-01-25T02:11:41.800Z,61.70
2018-01-25T02:14:09.405Z,61.80
2018-01-25T02:16:36.971Z,61.40
2018-01-25T02:19:04.523Z,61.60
2018-01-25T02:21:32.045Z,61.40
2018-01-25T02:23:59.587Z,61.50
2018-01-25T02:26:27.125Z,61.50
2018-01-25T02:28:54.642Z,61.70
2018-01-25T02:31:22.227Z,61.50
2018-01-25T02:33:49.732Z,61.40
2018-01-25T02:36:17.283Z,61.20
2018-01-25T02:38:44.847Z,61.00
2018-01-25T02:41:12.364Z,60.70
2018-01-25T02:43:39.912Z,61.10
2018-01-25T02:46:07.468Z,61.10
2018-01-25T02:48:35.010Z,60.90
2018-01-25T02:51:03.285Z,61.40
2018-01-25T02:53:30.847Z,61.30
2018-01-25T02:55:58.410Z,60.20
2018-01-25T02:58:25.937Z,60.50
2018-01-25T03:00:53.474Z,61.10
2018-01-25T03:03:20.992Z,61.30
2018-01-25T03:05:48.833Z,61.40
2018-01-25T03:08:16.335Z,61.10
2018-01-25T03:10:43.876Z,61.00
2018-01-25T03:13:11.411Z,61.20
2018-01-25T03:15:38.923Z,61.40
2018-01-25T03:18:06.449Z,61.40
2018-01-25T03:20:33.956Z,61.60
2018-01-25T03:23:01.577Z,61.70
2018-01-25T03:25:29.131Z,61.50
2018-01-25T03:27:56.636Z,61.30
2018-01-25T03:30:24.195Z,61.00
2018-01-25T03:32:51.697Z,61.30
2018-01-25T03:35:19.250Z,61.00
2018-01-25T03:37:46.784Z,61.30
2018-01-25T03:40:14.321Z,61.40
2018-01-25T03:42:41.868Z,61.40
2018-01-25T03:45:10.124Z,61.50
2018-01-25T03:47:39.596Z,61.60
2018-01-25T03:50:07.099Z,61.30
2018-01-25T03:52:34.644Z,61.60
2018-01-25T03:55:02.171Z,61.20
2018-01-25T03:57:29.728Z,61.60
2018-01-25T03:59:57.247Z,61.70
2018-01-25T04:02:24.849Z,61.60
2018-01-25T04:04:52.369Z,61.40
2018-01-25T04:07:19.904Z,61.40
2018-01-25T04:09:47.414Z,61.40
2018-01-25T04:12:14.968Z,61.60
2018-01-25T04:14:42.507Z,61.50
2018-01-25T04:17:10.123Z,60.90
2018-01-25T04:19:38.402Z,61.30
2018-01-25T04:22:05.955Z,61.20
2018-01-25T04:24:34.283Z,61.10
2018-01-25T04:27:01.849Z,61.20
2018-01-25T04:29:29.404Z,61.10
2018-01-25T04:31:56.960Z,60.80
2018-01-25T04:34:24.466Z,61.00
2018-01-25T04:36:52.785Z,60.50
2018-01-25T04:39:20.286Z,60.40
2018-01-25T04:41:47.798Z,59.80
2018-01-25T04:44:15.365Z,60.90
2018-01-25T04:46:42.913Z,61.10
2018-01-25T04:49:10.416Z,61.10
2018-01-25T04:51:37.964Z,61.30
2018-01-25T04:54:05.484Z,61.20
2018-01-25T04:56:33.049Z,61.70
2018-01-25T04:59:00.577Z,61.30
2018-01-25T05:01:28.880Z,61.80
2018-01-25T05:03:56.412Z,61.30
2018-01-25T05:06:24.747Z,61.50
2018-01-25T05:08:52.271Z,61.30
2018-01-25T05:11:19.811Z,61.40
2018-01-25T05:13:47.374Z,61.10
2018-01-25T05:16:14.902Z,60.90
2018-01-25T05:18:42.459Z,61.40
2018-01-25T05:21:09.972Z,61.50
2018-01-25T05:23:37.528Z,61.70
2018-01-25T05:26:05.036Z,61.40
2018-01-25T05:28:32.551Z,61.40
2018-01-25T05:31:00.133Z,61.40
2018-01-25T05:33:27.706Z,61.30
2018-01-25T05:35:55.239Z,61.30
2018-01-25T05:38:22.790Z,61.30
2018-01-25T05:40:50.300Z,60.90
2018-01-25T05:43:17.881Z,60.70
2018-01-25T05:45:45.388Z,61.30
2018-01-25T05:48:12.935Z,61.10
2018-01-25T05:50:40.447Z,61.10
2018-01-25T05:53:08.054Z,60.30
2018-01-25T05:55:36.307Z,61.10
2018-01-25T05:58:03.855Z,60.40
2018-01-25T06:00:32.167Z,60.10
2018-01-25T06:02:59.719Z,60.00
2018-01-25T06:05:27.230Z,60.20
2018-01-25T06:07:54.776Z,60.80
2018-01-25T06:10:22.281Z,60.70
2018-01-25T06:12:49.881Z,61.10
2018-01-25T06:15:17.396Z,61.10
2018-01-25T06:17:44.948Z,60.80
2018-01-25T06:20:12.471Z,61.10
2018-01-25T06:22:40.016Z,60.80
2018-01-25T06:25:07.564Z,60.40
2018-01-25T06:27:35.122Z,60.60
2018-01-25T06:30:02.971Z,60.70
2018-01-25T06:32:30.532Z,60.80
2018-01-25T06:34:58.074Z,61.10
2018-01-25T06:37:25.611Z,61.20
2018-01-25T06:39:53.148Z,60.80
2018-01-25T06:42:20.675Z,61.00
2018-01-25T06:44:48.221Z,60.80
2018-01-25T06:47:15.741Z,60.90
2018-01-25T06:49:43.356Z,60.60
2018-01-25T06:52:10.883Z,61.00
2018-01-25T06:54:38.425Z,61.00
2018-01-25T06:57:05.936Z,61.30
2018-01-25T06:59:33.499Z,61.50
2018-01-25T07:02:01.062Z,62.00
2018-01-25T07:04:28.599Z,61.60
2018-01-25T07:06:56.906Z,61.00
2018-01-25T07:09:24.433Z,61.00
2018-01-25T07:11:52.749Z,61.30
2018-01-25T07:14:20.304Z,61.30
2018-01-25T07:16:47.842Z,61.30
2018-01-25T07:19:15.406Z,61.40
2018-01-25T07:21:42.944Z,61.30
2018-01-25T07:24:11.271Z,61.80
2018-01-25T07:26:38.788Z,61.80
2018-01-25T07:29:07.060Z,61.70
2018-01-25T07:31:35.076Z,61.60
2018-01-25T07:34:02.622Z,61.90
2018-01-25T07:36:30.203Z,61.80
2018-01-25T07:38:57.822Z,61.10
2018-01-25T07:41:25.555Z,60.70
2018-01-25T07:43:53.132Z,60.20
2018-01-25T07:46:21.456Z,60.40
2018-01-25T07:48:48.998Z,60.40
2018-01-25T07:51:16.654Z,60.50
2018-01-25T07:53:44.231Z,60.50
2018-01-25T07:56:11.823Z,60.80
2018-01-25T07:58:39.409Z,60.60
2018-01-25T08:01:07.754Z,60.50
2018-01-25T08:03:35.334Z,60.50
2018-01-25T08:06:02.923Z,60.70
2018-01-25T08:08:30.483Z,60.90
2018-01-25T08:10:58.180Z,60.80
2018-01-25T08:13:31.362Z,60.90
2018-01-25T08:16:04.629Z,60.90
2018-01-25T08:18:32.156Z,60.90
2018-01-25T08:21:00.775Z,60.90
2018-01-25T08:23:28.726Z,61.20
2018-01-25T08:25:57.165Z,61.70
2018-01-25T08:28:24.858Z,61.60
2018-01-25T08:30:52.422Z,61.70
2018-01-25T08:33:19.939Z,61.60
2018-01-25T08:35:47.503Z,61.90
2018-01-25T08:38:15.178Z,61.40
2018-01-25T08:40:42.763Z,61.30
2018-01-25T08:43:11.187Z,61.50
2018-01-25T08:45:38.703Z,61.40
2018-01-25T08:48:06.323Z,61.10
2018-01-25T08:50:34.169Z,61.30
2018-01-25T08:53:01.682Z,61.10
2018-01-25T08:55:29.248Z,61.40
2018-01-25T08:57:56.806Z,61.30
2018-01-25T09:00:24.375Z,61.50
2018-01-25T09:02:52.737Z,62.20
2018-01-25T09:05:20.756Z,61.50
2018-01-25T09:07:48.283Z,61.20
2018-01-25T09:10:16.594Z,61.50
2018-01-25T09:12:44.111Z,61.50
2018-01-25T09:15:11.672Z,61.50
2018-01-25T09:17:39.237Z,61.70
2018-01-25T09:20:06.833Z,61.70
2018-01-25T09:22:34.417Z,60.60
2018-01-25T09:25:01.950Z,60.60
2018-01-25T09:27:29.478Z,60.70
2018-01-25T09:29:57.124Z,60.70
2018-01-25T09:32:24.830Z,60.50
2018-01-25T09:34:52.396Z,60.50
2018-01-25T09:37:20.005Z,60.70
2018-01-25T09:39:47.589Z,60.50
2018-01-25T09:42:15.911Z,60.70
2018-01-25T09:44:43.478Z,60.70
2018-01-25T09:47:11.016Z,60.70
2018-01-25T09:49:38.634Z,60.90
2018-01-25T09:52:06.954Z,61.00
2018-01-25T09:54:34.543Z,61.00
2018-01-25T09:57:02.125Z,61.00
2018-01-25T09:59:29.692Z,60.80
2018-01-25T10:01:58.947Z,60.70
2018-01-25T10:04:26.518Z,60.70
2018-01-25T10:06:54.050Z,60.70
2018-01-25T10:09:21.576Z,60.50
2018-01-25T10:11:49.400Z,60.30
2018-01-25T10:14:16.923Z,60.00
2018-01-25T10:16:44.457Z,60.00
2018-01-25T10:19:12.012Z,59.80
2018-01-25T10:21:39.568Z,59.80
2018-01-25T10:24:07.922Z,59.80
2018-01-25T10:26:35.506Z,59.70
2018-01-25T10:29:03.037Z,59.90
2018-01-25T10:31:34.340Z,59.80
2018-01-25T10:34:01.980Z,59.80
2018-01-25T10:36:29.529Z,59.90
2018-01-25T10:38:57.308Z,60.10
2018-01-25T10:41:25.672Z,60.00
2018-01-25T10:43:53.214Z,60.00
2018-01-25T10:46:20.811Z,60.00
2018-01-25T10:48:48.684Z,59.90
2018-01-25T10:51:16.256Z,59.90
2018-01-25T10:53:43.797Z,59.90
2018-01-25T10:56:12.233Z,59.90
2018-01-25T10:58:39.811Z,59.90
2018-01-25T11:01:13.189Z,60.00
2018-01-25T11:03:41.518Z,60.30
2018-01-25T11:06:08.870Z,60.40
2018-01-25T11:08:37.192Z,60.10
2018-01-25T11:11:04.716Z,60.10
2018-01-25T11:13:33.071Z,59.90
2018-01-25T11:16:00.641Z,59.90
2018-01-25T11:18:28.168Z,59.50
2018-01-25T11:20:56.528Z,59.20
2018-01-25T11:23:24.074Z,59.30
2018-01-25T11:25:51.632Z,59.10
2018-01-25T11:28:19.179Z,59.00
2018-01-25T11:30:46.772Z,58.80
2018-01-25T11:33:14.367Z,58.80
2018-01-25T11:35:41.937Z,58.50
2018-01-25T11:38:09.479Z,58.40
2018-01-25T11:40:37.142Z,57.80
2018-01-25T11:43:04.919Z,57.70
2018-01-25T11:45:32.471Z,56.90
2018-01-25T11:48:00.024Z,56.60
2018-01-25T11:50:27.596Z,56.50
2018-01-25T11:52:55.360Z,56.60
2018-01-25T11:55:22.916Z,56.50
2018-01-25T11:57:50.727Z,56.40
2018-01-25T12:00:18.328Z,55.80
2018-01-25T12:02:45.907Z,54.90
2018-01-25T12:05:14.206Z,54.90
2018-01-25T12:07:41.784Z,54.90
2018-01-25T12:10:09.308Z,55.10
2018-01-25T12:12:36.894Z,55.20
2018-01-25T12:15:04.567Z,54.90
2018-01-25T12:17:32.075Z,54.70
2018-01-25T12:19:59.637Z,54.50
2018-01-25T12:22:27.197Z,54.50
2018-01-25T12:24:54.813Z,54.50
2018-01-25T12:27:22.337Z,54.20
2018-01-25T12:29:50.748Z,54.30
2018-01-25T12:32:18.303Z,54.30
2018-01-25T12:34:45.833Z,54.60
2018-01-25T12:37:13.421Z,54.60
2018-01-25T12:39:40.964Z,54.10
2018-01-25T12:42:08.542Z,53.70
2018-01-25T12:44:36.131Z,53.90
2018-01-25T12:47:03.703Z,53.90
2018-01-25T12:49:31.227Z,53.80
2018-01-25T12:51:58.965Z,54.10
2018-01-25T12:54:26.524Z,54.40
2018-01-25T12:56:55.097Z,54.80
2018-01-25T12:59:22.657Z,54.80
2018-01-25T13:01:50.955Z,55.40
2018-01-25T13:04:18.526Z,55.40
2018-01-25T13:06:46.250Z,55.00
2018-01-25T13:09:14.183Z,54.80
2018-01-25T13:11:41.820Z,54.70
2018-01-25T13:14:09.351Z,54.70
2018-01-25T13:16:36.952Z,55.00
2018-01-25T13:19:04.588Z,54.80
2018-01-25T13:21:32.107Z,54.70
2018-01-25T13:23:59.629Z,54.60
2018-01-25T13:26:27.199Z,54.50
2018-01-25T13:28:55.627Z,54.60
2018-01-25T13:31:23.309Z,54.40
2018-01-25T13:33:50.999Z,54.60
2018-01-25T13:36:22.340Z,54.70
2018-01-25T13:38:49.910Z,54.40
2018-01-25T13:41:18.187Z,54.40
2018-01-25T13:43:45.748Z,54.40
2018-01-25T13:46:13.297Z,54.70
2018-01-25T13:48:40.863Z,54.70
2018-01-25T13:51:08.427Z,54.60
2018-01-25T13:53:36.020Z,54.80
2018-01-25T13:56:07.043Z,54.80
2018-01-25T13:58:34.596Z,55.00
2018-01-25T14:01:03.231Z,54.80
2018-01-25T14:03:31.562Z,54.60
2018-01-25T14:05:59.084Z,54.50
2018-01-25T14:08:26.623Z,54.40
2018-01-25T14:10:54.203Z,54.10
2018-01-25T14:13:21.762Z,53.90
2018-01-25T14:15:49.279Z,53.60
2018-01-25T14:18:16.867Z,53.70
2018-01-25T14:20:45.186Z,53.70
2018-01-25T14:23:12.753Z,53.60
2018-01-25T14:25:40.280Z,53.70
2018-01-25T14:28:07.847Z,53.50
2018-01-25T14:30:35.376Z,52.90
2018-01-25T14:33:02.930Z,52.70
2018-01-25T14:35:31.205Z,53.10
2018-01-25T14:37:59.260Z,53.10
2018-01-25T14:40:26.810Z,53.00
2018-01-25T14:42:54.419Z,52.80
2018-01-25T14:45:22.019Z,53.10
2018-01-25T14:47:49.588Z,53.20
2018-01-25T14:50:17.144Z,53.20
2018-01-25T14:52:44.664Z,53.00
2018-01-25T14:55:12.267Z,53.10
2018-01-25T14:57:39.812Z,53.00
2018-01-25T15:00:07.352Z,52.90
2018-01-25T15:02:34.916Z,52.80
2018-01-25T15:05:02.464Z,52.80
2018-01-25T15:07:30.466Z,53.00
2018-01-25T15:09:58.025Z,53.40
2018-01-25T15:12:25.699Z,54.00
2018-01-25T15:14:53.302Z,54.30
2018-01-25T15:17:20.867Z,54.40
2018-01-25T15:19:48.517Z,54.60
2018-01-25T15:22:17.621Z,55.00
2018-01-25T15:24:44.701Z,55.00
2018-01-25T15:27:17.986Z,55.00
2018-01-25T15:29:45.534Z,54.80
2018-01-25T15:32:13.329Z,54.80
2018-01-25T15:34:40.971Z,55.20
2018-01-25T15:37:08.502Z,55.20
2018-01-25T15:39:36.837Z,55.40
2018-01-25T15:42:05.239Z,55.50
2018-01-25T15:44:32.755Z,55.50
2018-01-25T15:47:00.309Z,55.10
2018-01-25T15:49:27.871Z,55.10
2018-01-25T15:51:55.430Z,54.90
2018-01-25T15:54:23.036Z,54.20
2018-01-25T15:56:50.638Z,54.10
2018-01-25T15:59:18.205Z,53.80
2018-01-25T16:01:45.787Z,53.30
2018-01-25T16:04:13.535Z,53.40
2018-01-25T16:06:41.165Z,53.40
2018-01-25T16:09:08.759Z,53.50
2018-01-25T16:11:36.432Z,53.10
2018-01-25T16:14:03.976Z,53.20
2018-01-25T16:16:31.541Z,54.00
2018-01-25T16:18:59.112Z,54.10
2018-01-25T16:21:26.793Z,53.30
2018-01-25T16:23:54.343Z,53.10
2018-01-25T16:26:21.898Z,53.30
2018-01-25T16:28:49.467Z,53.10
2018-01-25T16:31:17.510Z,53.20
2018-01-25T16:33:45.112Z,53.50
2018-01-25T16:36:12.652Z,53.70
2018-01-25T16:38:41.211Z,53.90
2018-01-25T16:41:08.831Z,54.00
2018-01-25T16:43:36.408Z,54.30
2018-01-25T16:46:04.698Z,55.00
2018-01-25T16:48:32.259Z,54.90
2018-01-25T16:50:59.823Z,55.40
2018-01-25T16:53:28.954Z,55.80
2018-01-25T16:55:56.514Z,56.30
2018-01-25T16:58:24.062Z,56.60
2018-01-25T17:00:51.597Z,57.10
2018-01-25T17:03:19.128Z,57.30
2018-01-25T17:05:47.433Z,57.70
2018-01-25T17:08:15.161Z,57.80
2018-01-25T17:10:42.676Z,57.60
2018-01-25T17:13:10.236Z,57.80
2018-01-25T17:15:37.796Z,58.30
2018-01-25T17:18:05.364Z,58.60
2018-01-25T17:20:32.903Z,58.90
2018-01-25T17:23:00.461Z,59.30
2018-01-25T17:25:28.017Z,59.10
2018-01-25T17:27:55.574Z,59.30
2018-01-25T17:30:23.228Z,58.90
2018-01-25T17:32:50.812Z,59.10
2018-01-25T17:35:18.439Z,59.20
2018-01-25T17:37:46.752Z,58.90
2018-01-25T17:40:14.339Z,58.70
2018-01-25T17:42:41.875Z,58.40
2018-01-25T17:45:09.511Z,58.30
2018-01-25T17:47:37.130Z,58.50
2018-01-25T17:50:04.743Z,58.60
2018-01-25T17:52:32.429Z,58.70
2018-01-25T17:55:00.050Z,58.30
2018-01-25T17:57:28.407Z,58.20
2018-01-25T17:59:56.052Z,58.20
2018-01-25T18:02:23.616Z,58.10
2018-01-25T18:04:51.143Z,58.20
2018-01-25T18:07:18.766Z,58.40
2018-01-25T18:09:47.132Z,58.10
2018-01-25T18:12:15.515Z,58.80
2018-01-25T18:14:43.907Z,58.50
2018-01-25T18:17:11.467Z,58.50
2018-01-25T18:19:39.797Z,58.90
2018-01-25T18:22:07.415Z,58.80
2018-01-25T18:24:34.982Z,58.90
2018-01-25T18:27:02.587Z,59.00
2018-01-25T18:29:30.199Z,59.00
2018-01-25T18:31:57.806Z,59.00
2018-01-25T18:34:25.376Z,58.80
2018-01-25T18:36:53.027Z,59.10
2018-01-25T18:39:20.631Z,59.00
2018-01-25T18:41:48.959Z,58.90
2018-01-25T18:44:16.559Z,58.90
2018-01-25T18:46:44.108Z,58.80
2018-01-25T18:49:11.739Z,58.70
2018-01-25T18:51:39.316Z,59.30
2018-01-25T18:54:06.906Z,59.10
2018-01-25T18:56:35.275Z,58.90
2018-01-25T18:59:03.649Z,59.20
2018-01-25T19:01:31.992Z,59.10
2018-01-25T19:03:59.526Z,59.10
2018-01-25T19:06:27.114Z,59.40
2018-01-25T19:08:54.632Z,59.10
2018-01-25T19:11:22.204Z,59.30
2018-01-25T19:13:49.794Z,59.50
2018-01-25T19:16:17.408Z,60.00
2018-01-25T19:18:45.692Z,59.10
2018-01-25T19:21:13.251Z,59.10
2018-01-25T19:23:40.848Z,58.90
2018-01-25T19:26:08.406Z,58.90
2018-01-25T19:28:35.935Z,59.00
2018-01-25T19:31:04.087Z,58.90
2018-01-25T19:33:32.452Z,58.90
2018-01-25T19:36:00.056Z,58.90
2018-01-25T19:38:27.625Z,58.60
2018-01-25T19:40:55.245Z,58.90
2018-01-25T19:43:22.820Z,59.10
2018-01-25T19:45:50.425Z,58.80
2018-01-25T19:48:17.988Z,58.70
2018-01-25T19:50:45.519Z,58.80
2018-01-25T19:53:13.070Z,58.50
2018-01-25T19:55:40.654Z,58.60
2018-01-25T19:58:08.283Z,58.70
2018-01-25T20:00:35.849Z,58.70
2018-01-25T20:03:03.366Z,58.60
2018-01-25T20:05:30.919Z,58.40
2018-01-25T20:07:58.502Z,58.60
2018-01-25T20:10:26.059Z,58.90
2018-01-25T20:12:54.412Z,59.00
2018-01-25T20:15:21.944Z,59.00
2018-01-25T20:17:49.584Z,59.10
2018-01-25T20:20:17.176Z,59.00
2018-01-25T20:22:44.788Z,58.90
2018-01-25T20:25:12.482Z,58.80
2018-01-25T20:27:40.083Z,58.90
2018-01-25T20:30:07.662Z,58.80
2018-01-25T20:32:35.253Z,58.90
2018-01-25T20:35:02.831Z,58.80
2018-01-25T20:37:30.510Z,58.80
2018-01-25T20:39:58.079Z,58.90
2018-01-25T20:42:25.700Z,58.50
2018-01-25T20:44:53.298Z,58.70
2018-01-25T20:47:20.855Z,58.50
2018-01-25T20:49:48.505Z,58.80
2018-01-25T20:52:16.037Z,58.90
2018-01-25T20:54:43.635Z,58.70
2018-01-25T20:57:11.198Z,58.70
2018-01-25T20:59:38.839Z,58.40
2018-01-25T21:02:06.406Z,58.40
2018-01-25T21:04:34.006Z,58.60
2018-01-25T21:07:01.582Z,58.20
2018-01-25T21:09:29.929Z,58.60
2018-01-25T21:11:57.451Z,58.50
2018-01-25T21:14:25.000Z,58.30
2018-01-25T21:16:52.519Z,58.60
2018-01-25T21:19:20.140Z,59.00
2018-01-25T21:21:47.759Z,59.00
2018-01-25T21:24:15.435Z,59.10
2018-01-25T21:26:42.976Z,58.90
2018-01-25T21:29:10.593Z,59.30
2018-01-25T21:31:38.199Z,59.10
2018-01-25T21:34:05.735Z,59.20
2018-01-25T21:36:33.337Z,59.40
2018-01-25T21:39:01.854Z,59.50
2018-01-25T21:41:29.504Z,59.50
2018-01-25T21:43:57.040Z,59.40
2018-01-25T21:46:24.627Z,59.40
2018-01-25T21:48:52.185Z,59.20
2018-01-25T21:51:19.796Z,61.30
2018-01-25T21:53:48.145Z,59.90
2018-01-25T21:56:15.779Z,59.40
2018-01-25T21:58:43.389Z,59.80
2018-01-25T22:01:10.984Z,59.60
2018-01-25T22:03:38.539Z,59.60
2018-01-25T22:06:06.107Z,59.70
2018-01-25T22:08:33.718Z,59.80
2018-01-25T22:11:02.067Z,59.40
2018-01-25T22:13:29.581Z,59.80
2018-01-25T22:15:57.164Z,59.30
2018-01-25T22:18:24.709Z,59.20
2018-01-25T22:20:52.332Z,59.20
2018-01-25T22:23:19.956Z,59.50
2018-01-25T22:25:47.539Z,59.70
2018-01-25T22:28:15.094Z,59.70
2018-01-25T22:30:42.699Z,59.20
2018-01-25T22:33:10.292Z,59.40
2018-01-25T22:35:37.811Z,59.50
2018-01-25T22:38:05.414Z,59.30
2018-01-25T22:40:32.966Z,59.30
2018-01-25T22:43:00.626Z,59.40
2018-01-25T22:45:28.240Z,59.50
2018-01-25T22:47:55.802Z,59.30
2018-01-25T22:50:23.391Z,59.40
2018-01-25T22:52:51.713Z,59.50
2018-01-25T22:55:19.325Z,59.50
2018-01-25T22:57:46.839Z,59.50
2018-01-25T23:00:26.217Z,59.70
2018-01-25T23:02:53.934Z,59.80
2018-01-25T23:05:21.467Z,59.80
2018-01-25T23:07:49.023Z,60.40
2018-01-25T23:10:16.560Z,59.80
2018-01-25T23:12:44.937Z,60.00
2018-01-25T23:15:13.239Z,60.80
2018-01-25T23:17:41.532Z,60.00
2018-01-25T23:20:09.106Z,59.90
2018-01-25T23:22:36.675Z,59.80
2018-01-25T23:25:04.238Z,59.70
2018-01-25T23:27:31.843Z,60.00
2018-01-25T23:30:00.174Z,59.60
2018-01-25T23:32:27.691Z,59.70
2018-01-25T23:34:55.239Z,59.50
2018-01-25T23:37:22.811Z,59.30
2018-01-25T23:39:50.396Z,59.20
2018-01-25T23:42:17.950Z,59.50
2018-01-25T23:44:45.476Z,59.60
2018-01-25T23:47:13.041Z,59.40
2018-01-25T23:49:40.589Z,59.60
2018-01-25T23:52:08.163Z,59.50
2018-01-25T23:54:35.696Z,59.30
2018-01-25T23:57:04.043Z,59.90
2018-01-25T23:59:31.582Z,59.40
